createdAt,value
2023-03-25T00:00:28.586Z,100.00
2023-03-25T00:03:53.254Z,100.00
2023-03-25T00:07:15.627Z,100.00
2023-03-25T00:10:37.452Z,100.00
2023-03-25T00:14:00.391Z,100.00
2023-03-25T00:17:26.322Z,100.00
2023-03-25T00:20:52.976Z,100.00
2023-03-25T00:24:17.807Z,100.00
2023-03-25T00:28:00.139Z,100.00
2023-03-25T00:31:22.006Z,100.00
2023-03-25T00:34:47.513Z,100.00
2023-03-25T00:38:16.368Z,100.00
2023-03-25T00:41:45.352Z,100.00
2023-03-25T00:45:08.918Z,100.00
2023-03-25T00:48:31.225Z,100.00
2023-03-25T00:51:56.409Z,100.00
2023-03-25T00:55:19.988Z,100.00
2023-03-25T00:58:41.953Z,100.00
2023-03-25T01:02:06.747Z,100.00
2023-03-25T01:05:30.521Z,100.00
2023-03-25T01:08:53.329Z,100.00
2023-03-25T01:12:19.021Z,100.00
2023-03-25T01:15:42.763Z,100.00
2023-03-25T01:19:04.679Z,100.00
2023-03-25T01:22:26.611Z,100.00
2023-03-25T01:25:48.529Z,100.00
2023-03-25T01:29:14.322Z,100.00
2023-03-25T01:32:38.235Z,100.00
2023-03-25T01:36:02.136Z,100.00
2023-03-25T01:39:31.869Z,100.00
2023-03-25T01:42:53.782Z,100.00
2023-03-25T01:46:15.685Z,100.00
2023-03-25T01:49:45.868Z,100.00
2023-03-25T01:53:10.579Z,100.00
2023-03-25T01:56:39.862Z,100.00
2023-03-25T02:00:02.191Z,100.00
2023-03-25T02:03:38.905Z,100.00
2023-03-25T02:07:03.140Z,100.00
2023-03-25T02:10:25.522Z,100.00
2023-03-25T02:13:52.535Z,100.00
2023-03-25T02:18:13.322Z,100.00
2023-03-25T02:22:14.666Z,100.00
2023-03-25T02:25:56.229Z,100.00
2023-03-25T02:29:59.003Z,100.00
2023-03-25T02:34:01.872Z,100.00
2023-03-25T02:38:00.998Z,100.00
2023-03-25T02:41:58.634Z,100.00
2023-03-25T02:45:34.410Z,100.00
2023-03-25T02:49:36.216Z,100.00
2023-03-25T02:53:06.070Z,100.00
2023-03-25T02:56:32.833Z,100.00
2023-03-25T02:59:58.294Z,100.00
2023-03-25T03:03:22.331Z,100.00
2023-03-25T03:06:44.715Z,100.00
2023-03-25T03:10:19.376Z,100.00
2023-03-25T03:14:24.268Z,100.00
2023-03-25T03:18:52.075Z,100.00
2023-03-25T03:22:37.236Z,100.00
2023-03-25T03:36:07.819Z,100.00
2023-03-25T03:39:36.545Z,100.00
2023-03-25T03:44:05.158Z,100.00
2023-03-25T03:47:36.556Z,100.00
2023-03-25T03:51:11.609Z,100.00
2023-03-25T03:55:08.753Z,100.00
2023-03-25T03:58:59.306Z,100.00
2023-03-25T04:02:47.760Z,100.00
2023-03-25T04:07:11.206Z,100.00
2023-03-25T04:10:52.571Z,100.00
2023-03-25T04:14:16.901Z,100.00
2023-03-25T04:17:40.953Z,100.00
2023-03-25T04:21:03.693Z,100.00
2023-03-25T04:24:26.614Z,100.00
2023-03-25T04:27:53.531Z,100.00
2023-03-25T04:31:17.669Z,100.00
2023-03-25T04:34:40.054Z,100.00
2023-03-25T04:38:01.910Z,100.00
2023-03-25T04:41:24.088Z,100.00
2023-03-25T04:44:47.186Z,100.00
2023-03-25T04:48:23.992Z,100.00
2023-03-25T04:51:45.900Z,100.00
2023-03-25T04:55:09.611Z,100.00
2023-03-25T04:58:32.171Z,100.00
2023-03-25T05:01:54.392Z,100.00
2023-03-25T05:05:20.158Z,100.00
2023-03-25T05:08:42.036Z,100.00
2023-03-25T05:12:04.010Z,100.00
2023-03-25T05:15:26.447Z,100.00
2023-03-25T05:18:48.560Z,100.00
2023-03-25T05:22:10.867Z,100.00
2023-03-25T05:25:34.398Z,100.00
2023-03-25T05:28:56.636Z,100.00
2023-03-25T05:32:18.621Z,100.00
2023-03-25T05:35:43.649Z,100.00
2023-03-25T05:39:06.486Z,100.00
2023-03-25T05:42:28.358Z,100.00
2023-03-25T05:45:50.404Z,100.00
2023-03-25T05:49:13.445Z,100.00
2023-03-25T05:52:36.948Z,100.00
2023-03-25T05:55:59.578Z,100.00
2023-03-25T05:59:25.449Z,100.00
2023-03-25T06:02:49.300Z,100.00
2023-03-25T06:06:18.508Z,100.00
2023-03-25T06:09:46.102Z,100.00
2023-03-25T06:13:08.978Z,100.00
2023-03-25T06:20:21.064Z,100.00
2023-03-25T06:23:50.118Z,100.00
2023-03-25T06:27:19.052Z,100.00
2023-03-25T06:30:41.848Z,100.00
2023-03-25T06:34:03.741Z,100.00
2023-03-25T06:37:26.382Z,100.00
2023-03-25T06:40:52.675Z,100.00
2023-03-25T06:44:16.796Z,100.00
2023-03-25T06:48:07.069Z,100.00
2023-03-25T06:51:38.745Z,100.00
2023-03-25T06:55:02.802Z,100.00
2023-03-25T06:58:35.218Z,100.00
2023-03-25T07:02:00.586Z,100.00
2023-03-25T07:05:25.412Z,100.00
2023-03-25T07:09:00.229Z,100.00
2023-03-25T07:12:28.031Z,100.00
2023-03-25T07:15:56.263Z,100.00
2023-03-25T07:19:21.176Z,100.00
2023-03-25T07:22:42.963Z,100.00
2023-03-25T07:26:06.142Z,100.00
2023-03-25T07:29:29.012Z,100.00
2023-03-25T07:32:52.044Z,100.00
2023-03-25T07:36:14.387Z,100.00
2023-03-25T07:39:38.317Z,100.00
2023-03-25T07:43:03.596Z,100.00
2023-03-25T07:46:31.895Z,100.00
2023-03-25T07:50:05.034Z,100.00
2023-03-25T07:53:38.888Z,100.00
2023-03-25T07:57:08.559Z,100.00
2023-03-25T08:00:32.461Z,100.00
2023-03-25T08:03:55.450Z,100.00
2023-03-25T08:07:21.389Z,100.00
2023-03-25T08:10:48.728Z,100.00
2023-03-25T08:14:11.696Z,100.00
2023-03-25T08:17:33.893Z,100.00
2023-03-25T08:20:55.759Z,100.00
2023-03-25T08:24:17.839Z,100.00
2023-03-25T08:27:41.244Z,100.00
2023-03-25T08:31:08.537Z,100.00
2023-03-25T08:34:34.554Z,100.00
2023-03-25T08:38:01.242Z,100.00
2023-03-25T08:41:34.801Z,100.00
2023-03-25T08:45:05.505Z,100.00
2023-03-25T08:48:27.331Z,100.00
2023-03-25T08:51:50.312Z,100.00
2023-03-25T08:55:16.028Z,100.00
2023-03-25T08:58:38.070Z,100.00
2023-03-25T09:02:01.637Z,100.00
2023-03-25T09:05:26.762Z,100.00
2023-03-25T09:08:50.460Z,100.00
2023-03-25T09:12:28.455Z,100.00
2023-03-25T09:15:51.643Z,100.00
2023-03-25T09:19:14.665Z,100.00
2023-03-25T09:22:41.348Z,100.00
2023-03-25T09:26:07.457Z,100.00
2023-03-25T09:29:29.605Z,100.00
2023-03-25T09:32:53.377Z,100.00
2023-03-25T09:36:17.330Z,100.00
2023-03-25T09:39:40.261Z,100.00
2023-03-25T09:43:26.178Z,100.00
2023-03-25T09:46:49.227Z,100.00
2023-03-25T09:50:16.150Z,100.00
2023-03-25T09:54:31.490Z,100.00
2023-03-25T09:58:05.142Z,100.00
2023-03-25T10:01:44.574Z,100.00
2023-03-25T10:05:51.005Z,96.99
2023-03-25T10:09:31.146Z,92.54
2023-03-25T10:13:19.771Z,96.21
2023-03-25T10:17:02.994Z,100.00
2023-03-25T10:20:55.820Z,100.00
2023-03-25T10:24:44.892Z,100.00
2023-03-25T10:28:16.237Z,100.00
2023-03-25T10:32:04.455Z,100.00
2023-03-25T10:35:41.889Z,100.00
2023-03-25T10:39:20.452Z,100.00
2023-03-25T10:43:24.329Z,100.00
2023-03-25T10:46:58.265Z,96.20
2023-03-25T10:50:21.732Z,94.53
2023-03-25T10:53:49.993Z,85.93
2023-03-25T10:57:33.231Z,79.86
2023-03-25T11:01:36.219Z,84.33
2023-03-25T11:05:06.434Z,77.03
2023-03-25T11:08:35.754Z,79.37
2023-03-25T11:12:02.475Z,84.46
2023-03-25T11:15:33.391Z,84.94
2023-03-25T11:19:02.242Z,87.79
2023-03-25T11:22:33.988Z,86.34
2023-03-25T11:26:06.673Z,89.94
2023-03-25T11:29:29.433Z,82.22
2023-03-25T11:33:06.884Z,75.69
2023-03-25T11:36:33.027Z,74.41
2023-03-25T11:39:55.965Z,72.90
2023-03-25T11:43:23.780Z,78.81
2023-03-25T11:46:54.461Z,79.55
2023-03-25T11:50:27.317Z,85.43
2023-03-25T11:54:01.502Z,94.64
2023-03-25T11:57:40.341Z,96.91
2023-03-25T12:01:28.307Z,99.04
2023-03-25T12:05:07.894Z,95.31
2023-03-25T12:08:48.117Z,93.34
2023-03-25T12:12:34.985Z,91.88
2023-03-25T12:16:07.933Z,86.25
2023-03-25T12:19:47.948Z,89.96
2023-03-25T12:23:47.354Z,92.94
2023-03-25T12:27:49.705Z,86.09
2023-03-25T12:31:42.455Z,82.56
2023-03-25T12:35:43.289Z,77.33
2023-03-25T12:39:51.593Z,79.24
2023-03-25T12:43:37.465Z,81.18
2023-03-25T12:47:27.522Z,78.86
2023-03-25T12:51:18.281Z,71.77
2023-03-25T12:55:11.051Z,71.41
2023-03-25T12:59:17.909Z,70.43
2023-03-25T13:03:07.538Z,69.45
2023-03-25T13:06:45.926Z,72.70
2023-03-25T13:10:13.802Z,69.35
2023-03-25T13:13:40.586Z,68.22
2023-03-25T13:17:12.848Z,69.37
2023-03-25T13:20:45.083Z,62.52
2023-03-25T13:24:30.283Z,60.68
2023-03-25T13:28:04.065Z,62.90
2023-03-25T13:31:37.429Z,65.19
2023-03-25T13:35:13.632Z,63.77
2023-03-25T13:38:46.993Z,64.66
2023-03-25T13:42:45.662Z,66.38
2023-03-25T13:46:17.224Z,74.24
2023-03-25T13:49:55.877Z,92.60
2023-03-25T13:53:36.347Z,100.00
2023-03-25T13:57:24.416Z,100.00
2023-03-25T14:01:20.843Z,100.00
2023-03-25T14:05:13.751Z,100.00
2023-03-25T14:09:38.201Z,100.00
2023-03-25T14:13:07.322Z,100.00
2023-03-25T14:16:44.310Z,100.00
2023-03-25T14:20:10.506Z,100.00
2023-03-25T14:23:33.581Z,100.00
2023-03-25T14:27:07.205Z,100.00
2023-03-25T14:30:31.042Z,100.00
2023-03-25T14:34:04.628Z,100.00
2023-03-25T14:37:29.545Z,100.00
2023-03-25T14:41:02.698Z,100.00
2023-03-25T14:44:32.840Z,100.00
2023-03-25T14:47:57.491Z,100.00
2023-03-25T14:51:30.181Z,100.00
2023-03-25T14:54:53.252Z,100.00
2023-03-25T14:58:29.819Z,100.00
2023-03-25T15:01:52.907Z,100.00
2023-03-25T15:05:27.223Z,100.00
2023-03-25T15:08:57.725Z,100.00
2023-03-25T15:12:25.295Z,100.00
2023-03-25T15:15:50.198Z,100.00
2023-03-25T15:19:15.233Z,100.00
2023-03-25T15:22:38.605Z,100.00
2023-03-25T15:26:04.738Z,100.00
2023-03-25T15:30:10.195Z,100.00
2023-03-25T15:34:04.844Z,100.00
2023-03-25T15:38:03.021Z,100.00
2023-03-25T15:41:43.049Z,100.00
2023-03-25T15:45:54.892Z,100.00
2023-03-25T15:50:03.751Z,100.00
2023-03-25T15:54:15.645Z,100.00
2023-03-25T15:57:44.256Z,100.00
2023-03-25T16:01:33.578Z,100.00
2023-03-25T16:04:56.296Z,100.00
2023-03-25T16:08:32.640Z,100.00
2023-03-25T16:12:02.144Z,100.00
2023-03-25T16:15:31.494Z,100.00
2023-03-25T16:18:56.107Z,100.00
2023-03-25T16:22:29.366Z,100.00
2023-03-25T16:25:53.439Z,100.00
2023-03-25T16:29:24.323Z,100.00
2023-03-25T16:32:48.688Z,100.00
2023-03-25T16:36:19.651Z,100.00
2023-03-25T16:39:58.989Z,100.00
2023-03-25T16:43:27.188Z,100.00
2023-03-25T16:46:54.380Z,100.00
2023-03-25T16:50:19.718Z,100.00
2023-03-25T16:53:42.746Z,100.00
2023-03-25T16:57:14.972Z,100.00
2023-03-25T17:00:51.813Z,100.00
2023-03-25T17:04:22.692Z,100.00
2023-03-25T17:07:49.485Z,100.00
2023-03-25T17:11:14.451Z,100.00
2023-03-25T17:14:44.108Z,100.00
2023-03-25T17:18:18.449Z,100.00
2023-03-25T17:22:06.513Z,100.00
2023-03-25T17:25:35.789Z,100.00
2023-03-25T17:29:06.286Z,100.00
2023-03-25T17:32:46.527Z,100.00
2023-03-25T17:36:11.265Z,100.00
2023-03-25T17:39:34.904Z,100.00
2023-03-25T17:42:58.834Z,100.00
2023-03-25T17:46:29.145Z,100.00
2023-03-25T17:49:52.345Z,100.00
2023-03-25T17:53:15.303Z,100.00
2023-03-25T17:56:39.624Z,100.00
2023-03-25T18:00:18.342Z,100.00
2023-03-25T18:03:41.219Z,100.00
2023-03-25T18:07:03.221Z,100.00
2023-03-25T18:10:26.295Z,100.00
2023-03-25T18:13:49.269Z,100.00
2023-03-25T18:17:15.746Z,100.00
2023-03-25T18:20:37.779Z,100.00
2023-03-25T18:24:08.301Z,100.00
2023-03-25T18:27:40.664Z,100.00
2023-03-25T18:31:05.976Z,100.00
2023-03-25T18:34:28.730Z,100.00
2023-03-25T18:37:51.593Z,100.00
2023-03-25T18:41:19.856Z,100.00
2023-03-25T18:44:42.741Z,100.00
2023-03-25T18:48:05.527Z,100.00
2023-03-25T18:51:34.267Z,100.00
2023-03-25T18:54:58.828Z,100.00
2023-03-25T18:58:26.237Z,100.00
2023-03-25T19:01:49.207Z,100.00
2023-03-25T19:05:17.529Z,100.00
2023-03-25T19:08:43.283Z,100.00
2023-03-25T19:12:05.567Z,100.00
2023-03-25T19:15:30.397Z,100.00
2023-03-25T19:18:52.211Z,100.00
2023-03-25T19:22:16.334Z,100.00
2023-03-25T19:25:40.547Z,100.00
2023-03-25T19:29:12.760Z,100.00
2023-03-25T19:32:42.666Z,100.00
2023-03-25T19:36:05.155Z,100.00
2023-03-25T19:39:29.792Z,100.00
2023-03-25T19:43:01.342Z,100.00
2023-03-25T19:46:25.436Z,100.00
2023-03-25T19:49:47.345Z,100.00
2023-03-25T19:53:11.507Z,100.00
2023-03-25T19:56:33.570Z,100.00
2023-03-25T19:59:56.486Z,100.00
2023-03-25T20:03:22.525Z,100.00
2023-03-25T20:06:46.165Z,100.00
2023-03-25T20:10:19.922Z,100.00
2023-03-25T20:13:42.303Z,100.00
2023-03-25T20:17:04.536Z,100.00
2023-03-25T20:20:27.579Z,100.00
2023-03-25T20:23:49.428Z,100.00
2023-03-25T20:27:17.353Z,100.00
2023-03-25T20:30:40.242Z,100.00
2023-03-25T20:34:02.067Z,100.00
2023-03-25T20:37:28.963Z,100.00
2023-03-25T20:40:54.468Z,100.00
2023-03-25T20:44:17.413Z,100.00
2023-03-25T20:47:39.784Z,100.00
2023-03-25T20:51:10.096Z,100.00
2023-03-25T20:54:42.768Z,100.00
2023-03-25T20:58:08.379Z,100.00
2023-03-25T21:01:30.297Z,100.00
2023-03-25T21:04:58.501Z,100.00
2023-03-25T21:08:22.178Z,100.00
2023-03-25T21:11:46.663Z,100.00
2023-03-25T21:15:09.746Z,100.00
2023-03-25T21:18:31.832Z,100.00
2023-03-25T21:21:58.902Z,100.00
2023-03-25T21:25:21.220Z,100.00
2023-03-25T21:28:45.310Z,100.00
2023-03-25T21:32:11.144Z,100.00
2023-03-25T21:35:33.568Z,100.00
2023-03-25T21:39:02.289Z,100.00
2023-03-25T21:42:31.268Z,100.00
2023-03-25T21:45:55.245Z,100.00
2023-03-25T21:49:22.191Z,100.00
2023-03-25T21:52:47.933Z,100.00
2023-03-25T21:56:17.443Z,100.00
2023-03-25T21:59:40.258Z,100.00
2023-03-25T22:03:13.139Z,100.00
2023-03-25T22:06:37.085Z,100.00
2023-03-25T22:10:00.894Z,100.00
2023-03-25T22:13:24.784Z,100.00
2023-03-25T22:16:46.632Z,100.00
2023-03-25T22:20:10.166Z,100.00
2023-03-25T22:23:32.174Z,100.00
2023-03-25T22:26:56.466Z,100.00
2023-03-25T22:30:38.943Z,100.00
2023-03-25T22:34:03.629Z,100.00
2023-03-25T22:37:25.809Z,100.00
2023-03-25T22:40:47.713Z,100.00
2023-03-25T22:44:12.182Z,100.00
2023-03-25T22:47:36.366Z,100.00
2023-03-25T22:50:59.400Z,100.00
2023-03-25T22:54:22.070Z,100.00
2023-03-25T23:02:07.400Z,100.00
2023-03-25T23:05:36.418Z,100.00
2023-03-25T23:09:08.644Z,100.00
2023-03-25T23:12:30.725Z,100.00
2023-03-25T23:16:15.215Z,100.00
2023-03-25T23:19:39.997Z,100.00
2023-03-25T23:23:02.659Z,100.00
2023-03-25T23:26:29.955Z,100.00
2023-03-25T23:29:51.885Z,100.00
2023-03-25T23:33:13.680Z,100.00
2023-03-25T23:36:39.303Z,100.00
2023-03-25T23:40:02.294Z,100.00
2023-03-25T23:43:32.287Z,100.00
2023-03-25T23:46:58.453Z,100.00
2023-03-25T23:50:21.371Z,100.00
2023-03-25T23:53:46.860Z,100.00
2023-03-25T23:57:09.836Z,100.00
